Time;durP1;ratioP1;P1;durP2;ratioP2;P2;SDS_P1;SDS_P2;PMS_P1;PMS_P2;Temp;Humidity;BMP_temperature;BMP_pressure;BME280_temperature;BME280_humidity;BME280_pressure;Samples;Min_cycle;Max_cycle;Signal;HPM_P1;HPM_P2
2022/08/22 00:01:23;;;;;;;;;;;;;;;19.41;60.16;101412.91;4983831;28;19933;-54
2022/08/22 00:03:57;;;;;;;;;;;;;;;19.41;60.00;101410.22;4994540;28;20538;-54
2022/08/22 00:06:41;;;;;;;;;;;;;;;19.39;60.16;101411.31;4993229;28;19951;-56
2022/08/22 00:09:20;;;;;;;;;;;;;;;19.39;59.96;101412.16;4986518;28;19933;-58
2022/08/22 00:11:54;;;;;;;;;;;;;;;19.38;60.20;101404.28;4985565;28;19937;-56
2022/08/22 00:14:23;;;;;;;;;;;;;;;19.35;60.20;101408.06;4985689;28;19925;-53
2022/08/22 00:17:07;;;;;;;;;;;;;;;19.33;60.23;101407.34;4985338;28;20063;-56
2022/08/22 00:19:48;;;;;;;;;;;;;;;19.32;59.99;101405.66;4984069;28;21105;-56
2022/08/22 00:22:13;;;;;;;;;;;;;;;19.29;60.40;101404.09;4989366;28;19926;-55
2022/08/22 00:24:53;;;;;;;;;;;;;;;19.30;60.38;101407.59;4983649;28;19918;-55
2022/08/22 00:27:45;;;;;;;;;;;;;;;19.29;60.34;101401.44;4983545;28;20052;-55
2022/08/22 00:30:14;;;;;;;;;;;;;;;19.25;60.44;101404.50;4990191;28;19968;-57
2022/08/22 00:32:42;;;;;;;;;;;;;;;19.21;60.49;101405.72;4970700;28;19922;-60
2022/08/22 00:35:17;;;;;;;;;;;;;;;19.21;60.76;101403.03;4987113;28;19972;-57
2022/08/22 00:37:46;;;;;;;;;;;;;;;19.22;60.51;101404.75;4994891;28;20380;-58
2022/08/22 00:40:30;;;;;;;;;;;;;;;19.24;60.81;101413.47;4986537;28;19945;-55
2022/08/22 00:42:58;;;;;;;;;;;;;;;19.25;60.74;101417.84;4983245;28;21074;-56
2022/08/22 00:45:23;;;;;;;;;;;;;;;19.27;60.61;101413.22;4986457;28;20555;-61
2022/08/22 00:48:07;;;;;;;;;;;;;;;19.26;60.63;101416.84;4983303;28;20370;-55
2022/08/22 00:50:48;;;;;;;;;;;;;;;19.24;60.35;101416.13;4986483;28;19922;-56
2022/08/22 00:53:19;;;;;;;;;;;;;;;19.21;60.70;101413.72;4993451;28;19917;-55
2022/08/22 00:55:51;;;;;;;;;;;;;;;19.17;60.87;101413.13;4989894;28;20293;-56
2022/08/22 00:58:35;;;;;;;;;;;;;;;19.16;60.72;101417.59;4992872;28;20825;-56
2022/08/22 01:01:11;;;;;;;;;;;;;;;19.12;60.97;101416.19;4983231;28;19921;-57
2022/08/22 01:03:49;;;;;;;;;;;;;;;19.09;60.78;101418.25;4984036;28;19933;-54
2022/08/22 01:06:17;;;;;;;;;;;;;;;19.08;61.06;101425.41;4988550;28;20017;-56
2022/08/22 01:08:45;;;;;;;;;;;;;;;19.09;61.09;101421.78;4985921;28;19921;-53
2022/08/22 01:11:16;;;;;;;;;;;;;;;19.08;61.13;101420.09;4990045;28;20395;-55
2022/08/22 01:14:20;;;;;;;;;;;;;;;19.08;60.96;101424.56;4987862;28;20818;-53
2022/08/22 01:16:48;;;;;;;;;;;;;;;19.10;60.73;101423.47;4977717;28;19985;-56
2022/08/22 01:19:19;;;;;;;;;;;;;;;19.09;60.93;101427.13;4970213;28;19959;-54
2022/08/22 01:22:03;;;;;;;;;;;;;;;19.05;60.97;101423.00;4981928;28;19925;-54
2022/08/22 01:24:28;;;;;;;;;;;;;;;19.04;60.97;101432.84;4990796;28;20040;-55
2022/08/22 01:27:19;;;;;;;;;;;;;;;19.03;61.09;101425.81;4987811;28;20373;-56
2022/08/22 01:29:50;;;;;;;;;;;;;;;19.01;60.97;101426.88;4989303;28;20012;-58
2022/08/22 01:32:15;;;;;;;;;;;;;;;19.00;61.30;101428.72;4995727;28;19929;-55
2022/08/22 01:34:53;;;;;;;;;;;;;;;18.98;60.91;101428.00;4993795;28;19980;-56
2022/08/22 01:37:37;;;;;;;;;;;;;;;18.93;61.26;101422.16;4990775;28;20012;-57
2022/08/22 01:40:02;;;;;;;;;;;;;;;18.95;61.04;101430.09;4987832;28;20868;-55
2022/08/22 01:42:50;;;;;;;;;;;;;;;18.95;61.30;101430.09;4990290;28;19921;-54
2022/08/22 01:45:34;;;;;;;;;;;;;;;18.95;61.05;101424.75;4984399;28;20478;-53
2022/08/22 01:48:15;;;;;;;;;;;;;;;18.95;61.00;101427.41;4991525;28;21797;-56
2022/08/22 01:50:56;;;;;;;;;;;;;;;18.92;61.12;101432.97;4975715;28;19948;-55
2022/08/22 01:53:27;;;;;;;;;;;;;;;18.89;61.35;101431.41;4996235;28;19926;-53
2022/08/22 01:56:05;;;;;;;;;;;;;;;18.87;61.34;101431.50;4988072;28;19924;-53
2022/08/22 01:58:32;;;;;;;;;;;;;;;18.83;61.48;101427.41;4994091;28;20749;-54
2022/08/22 02:01:09;;;;;;;;;;;;;;;18.81;61.62;101432.03;4985934;28;20220;-56
2022/08/22 02:03:35;;;;;;;;;;;;;;;18.81;61.39;101429.38;4985093;28;19926;-54
2022/08/22 02:06:23;;;;;;;;;;;;;;;18.81;61.53;101429.38;4993143;28;20511;-54
2022/08/22 02:09:07;;;;;;;;;;;;;;;18.80;61.27;101433.00;4988957;28;19938;-53
2022/08/22 02:11:36;;;;;;;;;;;;;;;18.76;61.55;101434.22;4989028;28;19929;-54
2022/08/22 02:14:25;;;;;;;;;;;;;;;18.72;61.51;101432.78;4989101;28;20035;-55
2022/08/22 02:16:56;;;;;;;;;;;;;;;18.69;61.47;101433.00;4992245;28;19976;-53
2022/08/22 02:19:28;;;;;;;;;;;;;;;18.67;61.82;101429.66;4993340;28;20020;-56
2022/08/22 02:21:54;;;;;;;;;;;;;;;18.64;61.71;101421.91;4986279;28;21578;-54
2022/08/22 02:24:31;;;;;;;;;;;;;;;18.63;61.80;101428.19;4992496;28;20445;-53
2022/08/22 02:27:03;;;;;;;;;;;;;;;18.63;61.73;101425.53;4991555;28;19933;-53
2022/08/22 02:29:39;;;;;;;;;;;;;;;18.61;61.71;101425.63;4990186;28;19949;-55
2022/08/22 02:32:15;;;;;;;;;;;;;;;18.58;61.60;101426.75;4990196;28;19953;-53
2022/08/22 02:34:47;;;;;;;;;;;;;;;18.57;61.96;101433.03;4988511;28;19926;-54
2022/08/22 02:37:28;;;;;;;;;;;;;;;18.56;61.69;101425.19;4990810;28;19987;-53
2022/08/22 02:40:06;;;;;;;;;;;;;;;18.55;62.13;101421.66;4988421;28;19964;-53
2022/08/22 02:42:50;;;;;;;;;;;;;;;18.55;61.84;101429.66;4987809;28;20344;-53
2022/08/22 02:45:34;;;;;;;;;;;;;;;18.55;61.93;101412.84;4986246;28;19926;-54
2022/08/22 02:48:24;;;;;;;;;;;;;;;18.52;61.86;101421.94;4987982;28;19921;-55
2022/08/22 02:51:18;;;;;;;;;;;;;;;18.50;62.06;101429.19;4993844;28;19943;-56
2022/08/22 02:53:47;;;;;;;;;;;;;;;18.50;62.13;101429.19;4944323;28;19918;-54
2022/08/22 02:56:12;;;;;;;;;;;;;;;18.50;62.06;101425.66;4986383;28;19926;-54
2022/08/22 02:58:44;;;;;;;;;;;;;;;18.52;62.19;101429.94;4994484;28;19937;-55
2022/08/22 03:01:15;;;;;;;;;;;;;;;18.51;62.23;101428.22;4990693;28;19964;-55
2022/08/22 03:03:41;;;;;;;;;;;;;;;18.52;61.86;101429.94;4981487;28;19925;-55
2022/08/22 03:06:27;;;;;;;;;;;;;;;18.49;62.37;101424.84;4994246;28;20012;-56
2022/08/22 03:09:05;;;;;;;;;;;;;;;18.45;62.16;101423.38;4995404;28;19996;-56
2022/08/22 03:11:34;;;;;;;;;;;;;;;18.42;62.22;101419.16;4987944;28;20059;-55
2022/08/22 03:14:21;;;;;;;;;;;;;;;18.42;62.31;101428.97;4971775;28;20419;-56
2022/08/22 03:16:57;;;;;;;;;;;;;;;18.39;62.44;101421.19;4972093;28;20370;-55
2022/08/22 03:19:22;;;;;;;;;;;;;;;18.36;62.46;101426.81;4993687;28;19929;-54
2022/08/22 03:21:56;;;;;;;;;;;;;;;18.34;62.39;101418.09;4986178;28;19926;-54
2022/08/22 03:24:42;;;;;;;;;;;;;;;18.30;62.37;101417.50;4988600;28;19932;-57
2022/08/22 03:27:19;;;;;;;;;;;;;;;18.30;62.50;101420.16;4990305;28;19931;-56
2022/08/22 03:30:04;;;;;;;;;;;;;;;18.30;62.27;101416.63;4990149;28;19937;-54
2022/08/22 03:32:49;;;;;;;;;;;;;;;18.28;62.51;101420.25;4989659;28;19999;-53
2022/08/22 03:35:33;;;;;;;;;;;;;;;18.27;62.30;101418.56;4990593;28;20440;-57
2022/08/22 03:38:10;;;;;;;;;;;;;;;18.26;62.32;101422.19;4998534;28;19926;-54
2022/08/22 03:41:10;;;;;;;;;;;;;;;18.25;62.59;101417.81;4995132;28;19926;-58
2022/08/22 03:43:42;;;;;;;;;;;;;;;18.26;62.51;101424.84;4994302;28;19929;-59
2022/08/22 03:46:07;;;;;;;;;;;;;;;18.23;62.39;101425.09;4989155;28;19924;-56
2022/08/22 03:48:56;;;;;;;;;;;;;;;18.25;62.59;101428.47;4985692;28;19945;-55
2022/08/22 03:51:29;;;;;;;;;;;;;;;18.26;62.49;101438.16;4992117;28;19921;-59
2022/08/22 03:54:00;;;;;;;;;;;;;;;18.26;62.67;101435.50;4986296;28;20316;-57
2022/08/22 03:56:25;;;;;;;;;;;;;;;18.24;62.44;101439.28;4987386;28;19984;-56
2022/08/22 03:59:10;;;;;;;;;;;;;;;18.22;62.68;101447.41;4974461;28;19925;-57
2022/08/22 04:01:44;;;;;;;;;;;;;;;18.23;62.73;101435.75;4989981;28;19921;-55
2022/08/22 04:04:09;;;;;;;;;;;;;;;18.23;62.62;101449.06;4979512;28;19917;-57
2022/08/22 04:06:44;;;;;;;;;;;;;;;18.20;62.57;101435.16;4986060;28;19925;-55
2022/08/22 04:09:15;;;;;;;;;;;;;;;18.16;62.80;101449.66;4985075;28;19925;-54
2022/08/22 04:11:57;;;;;;;;;;;;;;;18.16;62.71;101453.19;4989922;28;20012;-53
2022/08/22 04:14:52;;;;;;;;;;;;;;;18.16;62.62;101449.66;4986908;28;19929;-57
2022/08/22 04:17:36;;;;;;;;;;;;;;;18.16;62.92;101445.22;4970592;28;19972;-57
2022/08/22 04:20:20;;;;;;;;;;;;;;;18.16;62.95;101450.53;4986873;28;19972;-53
2022/08/22 04:23:04;;;;;;;;;;;;;;;18.19;62.89;101457.44;5000689;28;19980;-54
2022/08/22 04:25:29;;;;;;;;;;;;;;;18.21;62.77;101463.47;4980632;28;19921;-55
2022/08/22 04:28:13;;;;;;;;;;;;;;;18.22;62.75;101470.50;4992237;28;19932;-55
2022/08/22 04:31:01;;;;;;;;;;;;;;;18.23;62.81;101472.22;4986370;28;19930;-54
2022/08/22 04:33:41;;;;;;;;;;;;;;;18.24;62.73;101474.72;4978279;28;19925;-57
2022/08/22 04:36:06;;;;;;;;;;;;;;;18.23;62.79;101481.03;4994304;28;19922;-55
2022/08/22 04:38:41;;;;;;;;;;;;;;;18.25;62.75;101481.75;4981567;28;19926;-57
2022/08/22 04:41:23;;;;;;;;;;;;;;;18.28;62.64;101486.84;4988854;28;19929;-58
2022/08/22 04:43:56;;;;;;;;;;;;;;;18.30;62.92;101485.88;4991791;28;19925;-54
2022/08/22 04:46:25;;;;;;;;;;;;;;;18.31;62.84;101480.41;4977689;28;20036;-54
2022/08/22 04:48:56;;;;;;;;;;;;;;;18.34;62.74;101485.50;4989068;28;19925;-53
2022/08/22 04:51:48;;;;;;;;;;;;;;;18.35;62.49;101486.38;4985738;28;19922;-53
2022/08/22 04:54:32;;;;;;;;;;;;;;;18.36;62.57;101485.41;4987562;28;20008;-56
2022/08/22 04:57:01;;;;;;;;;;;;;;;18.36;62.60;101490.75;4997836;28;19926;-59
2022/08/22 04:59:28;;;;;;;;;;;;;;;18.33;62.83;101488.31;4996553;28;19936;-54
2022/08/22 05:01:57;;;;;;;;;;;;;;;18.30;62.91;101488.56;4998029;28;19977;-56
2022/08/22 05:04:28;;;;;;;;;;;;;;;18.31;62.94;101490.25;4994735;28;19933;-53
2022/08/22 05:06:57;;;;;;;;;;;;;;;18.33;62.83;101494.47;4998958;28;19956;-55
2022/08/22 05:09:27;;;;;;;;;;;;;;;18.36;63.10;101488.06;4996403;28;19936;-56
2022/08/22 05:11:56;;;;;;;;;;;;;;;18.39;62.85;101490.47;4998227;28;19925;-54
2022/08/22 05:14:50;;;;;;;;;;;;;;;18.44;62.82;101496.28;4997622;28;20079;-56
2022/08/22 05:17:19;;;;;;;;;;;;;;;18.47;62.90;101496.06;4992152;28;20400;-59
2022/08/22 05:19:49;;;;;;;;;;;;;;;18.48;62.97;101496.88;4997690;28;20542;-54
2022/08/22 05:22:18;;;;;;;;;;;;;;;18.48;63.03;101497.75;5000733;28;20018;-53
2022/08/22 05:24:47;;;;;;;;;;;;;;;18.47;62.74;101492.53;4998331;28;19914;-54
2022/08/22 05:27:22;;;;;;;;;;;;;;;18.48;62.78;101497.75;4998832;28;20447;-53
2022/08/22 05:29:52;;;;;;;;;;;;;;;18.50;62.95;101503.81;4998395;28;20551;-52
2022/08/22 05:32:26;;;;;;;;;;;;;;;18.50;62.64;101501.16;4994948;28;19948;-54
2022/08/22 05:34:54;;;;;;;;;;;;;;;18.55;62.90;101509.59;4999178;28;19932;-56
2022/08/22 05:37:42;;;;;;;;;;;;;;;18.59;62.79;101511.06;4996331;28;19928;-56
2022/08/22 05:40:13;;;;;;;;;;;;;;;18.66;62.90;101508.75;4991160;28;19933;-54
2022/08/22 05:42:38;;;;;;;;;;;;;;;18.71;62.76;101509.25;4979873;28;20049;-54
2022/08/22 05:45:05;;;;;;;;;;;;;;;18.76;62.78;101511.53;4995155;28;19929;-56
2022/08/22 05:47:39;;;;;;;;;;;;;;;18.81;62.91;101514.69;4994256;28;20022;-55
2022/08/22 05:50:30;;;;;;;;;;;;;;;18.84;62.79;101516.25;4993350;28;19922;-55
2022/08/22 05:52:56;;;;;;;;;;;;;;;18.91;62.95;101516.59;4996953;28;19928;-56
2022/08/22 05:55:25;;;;;;;;;;;;;;;18.95;62.93;101513.59;4996059;28;19922;-54
2022/08/22 05:57:59;;;;;;;;;;;;;;;19.00;62.97;101514.06;4995254;28;19917;-57
2022/08/22 06:00:27;;;;;;;;;;;;;;;19.05;62.47;101524.34;4997101;28;19933;-60
2022/08/22 06:02:52;;;;;;;;;;;;;;;19.08;62.45;101521.44;4996641;28;19925;-57
2022/08/22 06:05:22;;;;;;;;;;;;;;;19.11;62.50;101531.88;4998699;28;19925;-57
2022/08/22 06:07:49;;;;;;;;;;;;;;;19.13;62.73;101529.94;4991180;28;19928;-56
2022/08/22 06:10:21;;;;;;;;;;;;;;;19.16;62.70;101540.31;4976465;28;20313;-54
2022/08/22 06:12:47;;;;;;;;;;;;;;;19.21;62.64;101537.25;4992957;28;19929;-54
2022/08/22 06:15:15;;;;;;;;;;;;;;;19.26;62.70;101539.59;4996444;28;19925;-54
2022/08/22 06:17:46;;;;;;;;;;;;;;;19.28;62.70;101541.13;4993832;28;19923;-54
2022/08/22 06:20:22;;;;;;;;;;;;;;;19.30;62.52;101538.34;4992461;28;19918;-56
2022/08/22 06:22:50;;;;;;;;;;;;;;;19.33;62.54;101543.41;4994408;28;19972;-55
2022/08/22 06:25:27;;;;;;;;;;;;;;;19.35;62.77;101541.47;4993910;28;19917;-54
2022/08/22 06:27:53;;;;;;;;;;;;;;;19.38;62.88;101548.38;4994620;28;19932;-57
2022/08/22 06:30:19;;;;;;;;;;;;;;;19.40;62.91;101539.28;4994680;28;19926;-55
2022/08/22 06:32:54;;;;;;;;;;;;;;;19.44;63.01;101546.03;4997816;28;19929;-59
2022/08/22 06:35:28;;;;;;;;;;;;;;;19.49;62.97;101546.53;5001111;28;19922;-59
2022/08/22 06:37:56;;;;;;;;;;;;;;;19.54;62.96;101539.97;5000425;28;19940;-57
2022/08/22 06:40:22;;;;;;;;;;;;;;;19.59;62.69;101543.06;5000134;28;19964;-54
2022/08/22 06:42:49;;;;;;;;;;;;;;;19.63;63.08;101547.19;4994537;28;19933;-54
2022/08/22 06:45:21;;;;;;;;;;;;;;;19.67;63.04;101543.28;4997382;28;19933;-57
2022/08/22 06:48:04;;;;;;;;;;;;;;;19.71;62.74;101551.88;4995666;28;19932;-56
2022/08/22 06:50:35;;;;;;;;;;;;;;;19.75;62.52;101554.16;4993715;28;19921;-54
2022/08/22 06:53:06;;;;;;;;;;;;;;;19.78;62.71;101545.06;4992680;28;19917;-55
2022/08/22 06:55:33;;;;;;;;;;;;;;;19.82;62.71;101550.97;4994847;28;20016;-56
2022/08/22 06:58:02;;;;;;;;;;;;;;;19.85;62.71;101550.72;4980905;28;20020;-60
2022/08/22 07:00:30;;;;;;;;;;;;;;;19.88;62.70;101558.53;4990313;28;19926;-56
2022/08/22 07:03:15;;;;;;;;;;;;;;;19.91;62.41;101547.56;4998101;28;19933;-57
2022/08/22 07:05:41;;;;;;;;;;;;;;;19.94;62.41;101557.97;5000730;28;19924;-56
2022/08/22 07:08:12;;;;;;;;;;;;;;;19.95;62.66;101559.69;4995901;28;19933;-56
2022/08/22 07:10:43;;;;;;;;;;;;;;;19.97;62.31;101555.06;5002344;28;19918;-54
2022/08/22 07:13:12;;;;;;;;;;;;;;;19.98;62.29;101556.75;4998296;28;19918;-56
2022/08/22 07:15:40;;;;;;;;;;;;;;;19.99;62.28;101563.78;4997548;28;20296;-55
2022/08/22 07:18:08;;;;;;;;;;;;;;;20.02;62.67;101565.34;4995853;28;19933;-54
2022/08/22 07:20:40;;;;;;;;;;;;;;;20.04;62.30;101558.88;4993563;28;20489;-56
2022/08/22 07:23:11;;;;;;;;;;;;;;;20.06;62.50;101556.09;4991124;28;19936;-54
2022/08/22 07:25:53;;;;;;;;;;;;;;;20.08;62.35;101557.66;4993327;28;19922;-54
2022/08/22 07:28:24;;;;;;;;;;;;;;;20.10;62.46;101563.72;4990396;28;19928;-55
2022/08/22 07:30:55;;;;;;;;;;;;;;;20.14;62.25;101564.28;4993702;28;19969;-56
2022/08/22 07:33:58;;;;;;;;;;;;;;;20.16;62.26;101558.84;4993671;28;19928;-58
2022/08/22 07:36:24;;;;;;;;;;;;;;;20.23;62.21;101565.31;4954168;28;20369;-54
2022/08/22 07:39:13;;;;;;;;;;;;;;;20.29;62.32;101567.47;4957318;28;20398;-56
2022/08/22 07:41:47;;;;;;;;;;;;;;;20.36;62.08;101571.31;4977868;28;20464;-55
2022/08/22 07:44:18;;;;;;;;;;;;;;;20.38;62.21;101564.00;4994557;28;19929;-55
2022/08/22 07:46:55;;;;;;;;;;;;;;;20.41;61.74;101571.75;4991848;28;19922;-55
2022/08/22 07:49:23;;;;;;;;;;;;;;;20.46;62.07;101568.69;4992945;28;19921;-54
2022/08/22 07:51:52;;;;;;;;;;;;;;;20.51;61.60;101565.59;4991762;28;19948;-55
2022/08/22 07:54:40;;;;;;;;;;;;;;;20.55;61.89;101564.38;4979464;28;19922;-57
2022/08/22 07:57:10;;;;;;;;;;;;;;;20.61;61.57;101561.16;4994377;28;19925;-54
2022/08/22 07:59:44;;;;;;;;;;;;;;;20.66;61.82;101561.59;4993762;28;20397;-55
2022/08/22 08:02:11;;;;;;;;;;;;;;;20.72;61.73;101560.22;4992046;28;19921;-54
2022/08/22 08:04:37;;;;;;;;;;;;;;;20.76;61.34;101566.19;4991686;28;19921;-55
2022/08/22 08:07:07;;;;;;;;;;;;;;;20.76;61.63;101567.00;4994653;28;19921;-60
2022/08/22 08:09:35;;;;;;;;;;;;;;;20.80;61.72;101567.56;4992558;28;20024;-58
2022/08/22 08:12:02;;;;;;;;;;;;;;;20.83;61.35;101568.16;4993070;28;19933;-56
2022/08/22 08:14:29;;;;;;;;;;;;;;;20.83;61.13;101569.97;4995825;28;19922;-57
2022/08/22 08:16:54;;;;;;;;;;;;;;;20.86;61.37;101567.03;4994544;28;19959;-55
2022/08/22 08:19:21;;;;;;;;;;;;;;;20.90;61.57;101575.63;4995447;28;20360;-58
2022/08/22 08:21:49;;;;;;;;;;;;;;;20.95;61.53;101565.38;4996492;28;19978;-56
2022/08/22 08:24:19;;;;;;;;;;;;;;;21.02;61.51;101575.41;4992651;28;19917;-56
2022/08/22 08:29:33;;;;;;;;;;;;;;;21.17;61.17;101569.66;4989430;28;20016;-57
2022/08/22 08:31:59;;;;;;;;;;;;;;;21.24;61.14;101565.44;4993278;28;20019;-54
2022/08/22 08:34:26;;;;;;;;;;;;;;;21.34;61.00;101572.63;4993157;28;20705;-56
2022/08/22 08:36:53;;;;;;;;;;;;;;;21.40;60.93;101575.59;4993277;28;20391;-56
2022/08/22 08:39:41;;;;;;;;;;;;;;;21.44;60.97;101569.00;4989450;28;19930;-57
2022/08/22 08:42:09;;;;;;;;;;;;;;;21.47;60.75;101566.03;4987972;28;19968;-53
2022/08/22 08:44:37;;;;;;;;;;;;;;;21.54;60.79;101560.97;4993685;28;19933;-53
2022/08/22 08:47:21;;;;;;;;;;;;;;;21.60;60.56;101573.81;4990802;28;19980;-55
2022/08/22 08:50:04;;;;;;;;;;;;;;;21.66;60.47;101564.34;4992072;28;20472;-56
2022/08/22 08:52:50;;;;;;;;;;;;;;;21.71;60.38;101558.56;4992628;28;19901;-53
2022/08/22 08:55:15;;;;;;;;;;;;;;;21.78;60.21;101567.72;4992603;28;19971;-54
2022/08/22 08:57:44;;;;;;;;;;;;;;;21.83;60.28;101564.63;4991663;28;19957;-56
2022/08/22 09:00:13;;;;;;;;;;;;;;;21.90;59.94;101560.41;4992827;28;19930;-58
2022/08/22 09:02:38;;;;;;;;;;;;;;;21.90;59.88;101561.22;4990018;28;20373;-58
2022/08/22 09:05:06;;;;;;;;;;;;;;;21.97;59.79;101560.66;4981026;28;19925;-58
2022/08/22 09:07:35;;;;;;;;;;;;;;;22.01;59.93;101559.38;4990512;28;19922;-56
2022/08/22 09:10:16;;;;;;;;;;;;;;;22.05;59.83;101558.09;4989892;28;19918;-57
2022/08/22 09:12:44;;;;;;;;;;;;;;;22.10;59.81;101563.88;4994744;28;19953;-57
2022/08/22 09:15:19;;;;;;;;;;;;;;;22.16;59.88;101555.25;4990100;28;19921;-57
2022/08/22 09:17:52;;;;;;;;;;;;;;;22.22;59.58;101557.34;4995891;28;19922;-57
2022/08/22 09:20:23;;;;;;;;;;;;;;;22.32;59.46;101551.09;4985494;28;20008;-55
2022/08/22 09:22:58;;;;;;;;;;;;;;;22.41;59.32;101558.28;4991007;28;20417;-59
2022/08/22 09:25:25;;;;;;;;;;;;;;;22.47;59.11;101557.72;4993665;28;20404;-58
2022/08/22 09:27:59;;;;;;;;;;;;;;;22.55;58.99;101558.84;4991226;28;20248;-58
2022/08/22 09:30:30;;;;;;;;;;;;;;;22.61;58.64;101555.56;4992477;28;19925;-55
2022/08/22 09:33:01;;;;;;;;;;;;;;;22.67;58.67;101546.91;4994796;28;20347;-55
2022/08/22 09:35:37;;;;;;;;;;;;;;;22.75;58.46;101565.81;4995042;28;19937;-56
2022/08/22 09:38:12;;;;;;;;;;;;;;;22.80;58.47;101559.97;4996645;28;19965;-56
2022/08/22 09:40:46;;;;;;;;;;;;;;;22.83;58.06;101557.84;4995701;28;19976;-56
2022/08/22 09:43:18;;;;;;;;;;;;;;;22.89;58.04;101559.06;4994150;28;19926;-55
2022/08/22 09:46:02;;;;;;;;;;;;;;;22.95;57.95;101565.69;4996476;28;19925;-54
2022/08/22 09:48:30;;;;;;;;;;;;;;;23.02;57.69;101556.03;4996956;28;19922;-54
2022/08/22 09:51:18;;;;;;;;;;;;;;;23.05;57.56;101557.56;4996876;28;19944;-55
2022/08/22 09:53:43;;;;;;;;;;;;;;;23.09;57.16;101550.91;4996061;28;19926;-55
2022/08/22 09:56:15;;;;;;;;;;;;;;;23.09;56.82;101556.28;4994735;28;19932;-55
2022/08/22 09:58:42;;;;;;;;;;;;;;;23.09;57.25;101557.09;4993032;28;19975;-54
2022/08/22 10:01:17;;;;;;;;;;;;;;;23.12;56.95;101556.81;4989943;28;19975;-54
2022/08/22 10:03:45;;;;;;;;;;;;;;;23.13;56.96;101563.03;4992996;28;20415;-56
2022/08/22 10:06:24;;;;;;;;;;;;;;;23.14;56.73;101560.19;5000907;28;19929;-55
2022/08/22 10:09:08;;;;;;;;;;;;;;;23.19;56.86;101562.41;4988135;28;19925;-56
2022/08/22 10:11:45;;;;;;;;;;;;;;;23.24;56.67;101562.84;5005116;28;19921;-58
2022/08/22 10:14:16;;;;;;;;;;;;;;;23.30;56.48;101564.06;5004777;28;19993;-53
2022/08/22 10:17:04;;;;;;;;;;;;;;;23.33;56.28;101558.41;5006698;28;20028;-55
2022/08/22 10:19:38;;;;;;;;;;;;;;;23.40;55.91;101567.53;4999796;28;19950;-55
2022/08/22 10:22:06;;;;;;;;;;;;;;;23.46;55.93;101555.31;5005688;28;19925;-54
2022/08/22 10:24:42;;;;;;;;;;;;;;;23.51;55.75;101566.44;5003633;28;20480;-55
2022/08/22 10:27:13;;;;;;;;;;;;;;;23.58;55.41;101564.00;4992499;28;19926;-56
2022/08/22 10:29:57;;;;;;;;;;;;;;;23.62;55.42;101561.81;5003546;28;19988;-53
2022/08/22 10:32:29;;;;;;;;;;;;;;;23.65;55.39;101567.75;5004416;28;20055;-53
2022/08/22 10:35:18;;;;;;;;;;;;;;;23.72;55.21;101567.97;4999748;28;19936;-56
2022/08/22 10:38:04;;;;;;;;;;;;;;;23.78;54.88;101569.19;4990491;28;19944;-54
2022/08/22 10:40:42;;;;;;;;;;;;;;;23.81;54.70;101575.09;4996163;28;19925;-53
2022/08/22 10:43:13;;;;;;;;;;;;;;;23.84;54.53;101577.47;5004380;28;19922;-54
2022/08/22 10:45:46;;;;;;;;;;;;;;;23.85;54.42;101572.94;5000040;28;19971;-55
2022/08/22 10:48:15;;;;;;;;;;;;;;;23.85;54.50;101578.31;4995404;28;19941;-53
2022/08/22 10:50:48;;;;;;;;;;;;;;;23.86;54.42;101574.63;4994131;28;19929;-54
2022/08/22 10:53:29;;;;;;;;;;;;;;;23.87;54.40;101565.56;5004053;28;19921;-54
2022/08/22 10:56:15;;;;;;;;;;;;;;;23.87;54.13;101566.41;4999702;28;19926;-55
2022/08/22 10:59:00;;;;;;;;;;;;;;;23.92;53.93;101563.25;4996047;28;19936;-54
2022/08/22 11:01:27;;;;;;;;;;;;;;;23.94;53.88;101566.63;4993238;28;19952;-56
2022/08/22 11:04:11;;;;;;;;;;;;;;;23.93;53.84;101564.94;4993985;28;19922;-56
2022/08/22 11:07:13;;;;;;;;;;;;;;;23.91;53.73;101558.88;4995740;28;19961;-54
2022/08/22 11:09:40;;;;;;;;;;;;;;;23.91;53.63;101561.56;4999184;28;19918;-55
2022/08/22 11:12:06;;;;;;;;;;;;;;;23.94;53.69;101566.63;4996202;28;20737;-53
2022/08/22 11:14:37;;;;;;;;;;;;;;;23.96;53.63;101569.16;5001341;28;19926;-56
2022/08/22 11:17:02;;;;;;;;;;;;;;;23.98;53.53;101568.03;4997284;28;19980;-53
2022/08/22 11:19:41;;;;;;;;;;;;;;;23.99;53.19;101552.75;4993752;28;19921;-56
2022/08/22 11:22:14;;;;;;;;;;;;;;;24.00;53.32;101563.34;4992601;28;20007;-56
2022/08/22 11:24:57;;;;;;;;;;;;;;;24.00;53.08;101554.44;4996060;28;20040;-53
2022/08/22 11:27:23;;;;;;;;;;;;;;;24.01;53.11;101551.59;4994993;28;19933;-54
2022/08/22 11:29:57;;;;;;;;;;;;;;;24.08;53.13;101550.97;4993455;28;19932;-54
2022/08/22 11:32:41;;;;;;;;;;;;;;;24.15;53.08;101552.84;4995322;28;19921;-53
2022/08/22 11:35:12;;;;;;;;;;;;;;;24.20;52.64;101555.06;4993885;28;20000;-53
2022/08/22 11:37:56;;;;;;;;;;;;;;;24.19;52.66;101566.81;4998836;28;20311;-54
2022/08/22 11:40:41;;;;;;;;;;;;;;;24.19;52.55;101564.13;4993162;28;20370;-55
2022/08/22 11:43:25;;;;;;;;;;;;;;;24.22;52.51;101563.81;4995297;28;19933;-57
2022/08/22 11:45:52;;;;;;;;;;;;;;;24.24;52.43;101563.66;4994241;28;20004;-53
2022/08/22 11:48:33;;;;;;;;;;;;;;;24.24;52.42;101566.34;4995816;28;19922;-53
2022/08/22 11:51:21;;;;;;;;;;;;;;;24.23;52.35;101570.88;4996153;28;19920;-53
2022/08/22 11:53:52;;;;;;;;;;;;;;;24.23;52.41;101562.81;4996160;28;20036;-53
2022/08/22 11:56:26;;;;;;;;;;;;;;;24.22;52.22;101566.50;4995614;28;19968;-56
2022/08/22 11:58:52;;;;;;;;;;;;;;;24.20;52.41;101565.81;4996953;28;20012;-53
2022/08/22 12:01:20;;;;;;;;;;;;;;;24.19;52.38;101561.44;4971749;28;19921;-54
2022/08/22 12:03:46;;;;;;;;;;;;;;;24.18;52.24;101557.06;4992133;28;19965;-57
2022/08/22 12:06:11;;;;;;;;;;;;;;;24.17;52.39;101560.75;4993098;28;20443;-59
2022/08/22 12:08:48;;;;;;;;;;;;;;;24.18;52.17;101557.06;4995344;28;20020;-54
2022/08/22 12:11:22;;;;;;;;;;;;;;;24.17;52.25;101555.38;4991769;28;20335;-55
2022/08/22 12:13:55;;;;;;;;;;;;;;;24.18;52.13;101551.69;4996662;28;19948;-54
2022/08/22 12:16:38;;;;;;;;;;;;;;;24.20;52.04;101558.59;4995094;28;19926;-54
2022/08/22 12:19:04;;;;;;;;;;;;;;;24.22;51.95;101558.44;4995470;28;20394;-56
2022/08/22 12:21:32;;;;;;;;;;;;;;;24.25;51.87;101558.13;4991463;28;19934;-53
2022/08/22 12:24:09;;;;;;;;;;;;;;;24.27;51.94;101548.06;4977419;28;19926;-57
2022/08/22 12:26:54;;;;;;;;;;;;;;;24.31;51.89;101541.34;4983548;28;19926;-54
2022/08/22 12:29:19;;;;;;;;;;;;;;;24.34;51.88;101543.72;4984769;28;20022;-59
2022/08/22 12:32:03;;;;;;;;;;;;;;;24.32;51.90;101543.03;4992564;28;20000;-56
2022/08/22 12:34:41;;;;;;;;;;;;;;;24.34;51.66;101538.34;4977087;28;20482;-61
2022/08/22 12:37:15;;;;;;;;;;;;;;;24.39;51.63;101542.41;4987650;28;19922;-54
2022/08/22 12:39:40;;;;;;;;;;;;;;;24.41;51.51;101535.84;4990513;28;19934;-54
2022/08/22 12:42:09;;;;;;;;;;;;;;;24.44;51.52;101548.13;4990282;28;19929;-57
2022/08/22 12:44:40;;;;;;;;;;;;;;;24.45;51.42;101533.66;4983478;28;20024;-55
2022/08/22 12:47:25;;;;;;;;;;;;;;;24.46;51.38;101532.66;4988131;28;19995;-54
2022/08/22 12:50:00;;;;;;;;;;;;;;;24.45;51.36;101531.84;4993416;28;19921;-55
2022/08/22 12:52:49;;;;;;;;;;;;;;;24.46;51.34;101535.34;4990928;28;20028;-57
2022/08/22 12:55:29;;;;;;;;;;;;;;;24.47;51.27;101520.91;4974174;28;19926;-54
2022/08/22 12:57:57;;;;;;;;;;;;;;;24.47;51.70;101523.59;4987538;28;19925;-54
2022/08/22 13:00:34;;;;;;;;;;;;;;;24.45;51.13;101521.06;4986415;28;26215;-55
2022/08/22 13:03:18;;;;;;;;;;;;;;;24.42;51.03;101515.19;4992628;28;20408;-54
2022/08/22 13:05:46;;;;;;;;;;;;;;;24.37;50.97;101512.97;4983209;28;19929;-56
2022/08/22 13:08:15;;;;;;;;;;;;;;;24.33;51.00;101522.38;4984806;28;19918;-56
2022/08/22 13:10:48;;;;;;;;;;;;;;;24.30;50.94;101518.13;4979683;28;19921;-54
2022/08/22 13:13:26;;;;;;;;;;;;;;;24.30;51.04;101514.63;4985359;28;21203;-56
2022/08/22 13:15:57;;;;;;;;;;;;;;;24.30;51.13;101515.44;4981091;28;19925;-55